Time;durP1;ratioP1;P1;durP2;ratioP2;P2;SDS_P1;SDS_P2;PMS_P1;PMS_P2;Temp;Humidity;BMP_temperature;BMP_pressure;BME280_temperature;BME280_humidity;BME280_pressure;Samples;Min_cycle;Max_cycle;Signal;HPM_P1;HPM_P2
2024/01/12 00:00:28;;;;;;;36.20;20.33;;;-1.90;99.90;;;;;;5036678;28;20182;-51
2024/01/12 00:02:54;;;;;;;38.23;22.60;;;-1.90;99.90;;;;;;5036963;28;20322;-52
2024/01/12 00:05:19;;;;;;;34.80;20.37;;;-1.90;99.90;;;;;;5036752;28;20191;-52
2024/01/12 00:07:45;;;;;;;39.30;22.00;;;-2.00;99.90;;;;;;5036423;28;20535;-52
2024/01/12 00:10:10;;;;;;;41.77;23.47;;;-2.00;99.90;;;;;;5036590;28;20262;-52
2024/01/12 00:12:36;;;;;;;38.37;21.10;;;-2.00;99.90;;;;;;5036604;28;20186;-52
2024/01/12 00:15:05;;;;;;;32.97;21.10;;;-2.00;99.90;;;;;;5036650;28;20249;-52
2024/01/12 00:17:36;;;;;;;42.50;22.93;;;-2.00;99.90;;;;;;5036605;28;20226;-52
2024/01/12 00:20:04;;;;;;;39.73;21.80;;;-2.00;99.90;;;;;;5036867;28;20442;-52
2024/01/12 00:22:30;;;;;;;47.13;23.03;;;-2.00;99.90;;;;;;5036412;28;20190;-52
2024/01/12 00:24:55;;;;;;;39.23;21.10;;;-2.00;99.90;;;;;;5036501;28;20786;-52
2024/01/12 00:27:21;;;;;;;45.23;22.40;;;-2.00;99.90;;;;;;5036021;28;20179;-52
2024/01/12 00:29:46;;;;;;;71.03;23.97;;;-2.00;99.90;;;;;;5035822;28;20532;-51
2024/01/12 00:32:12;;;;;;;54.10;23.93;;;-1.90;99.90;;;;;;5035962;28;20195;-53
2024/01/12 00:34:38;;;;;;;71.00;23.07;;;-1.90;99.90;;;;;;5036058;28;20223;-52
2024/01/12 00:37:03;;;;;;;51.00;24.13;;;-1.90;99.90;;;;;;5036207;28;20188;-52
2024/01/12 00:39:29;;;;;;;78.73;23.40;;;-1.90;99.90;;;;;;5036063;28;20187;-51
2024/01/12 00:41:54;;;;;;;52.13;22.37;;;-1.80;99.90;;;;;;5035925;28;20275;-51
2024/01/12 00:44:21;;;;;;;45.07;22.30;;;-1.80;99.90;;;;;;5035971;28;20238;-51
2024/01/12 00:46:50;;;;;;;45.33;21.80;;;-1.90;99.90;;;;;;5035754;28;20559;-52
2024/01/12 00:49:17;;;;;;;40.77;21.60;;;-1.80;99.90;;;;;;5035670;28;20433;-52
2024/01/12 00:51:43;;;;;;;63.63;22.13;;;-1.90;99.90;;;;;;5035583;28;20425;-52
2024/01/12 00:54:09;;;;;;;47.57;22.43;;;-1.80;99.90;;;;;;5035981;28;20465;-52
2024/01/12 00:56:34;;;;;;;60.53;22.93;;;-1.80;99.90;;;;;;5035855;28;20179;-52
2024/01/12 00:59:00;;;;;;;44.17;22.63;;;-1.90;99.90;;;;;;5035576;28;20258;-52
2024/01/12 01:01:25;;;;;;;55.60;21.93;;;-1.90;99.90;;;;;;5035303;28;20245;-53
2024/01/12 01:03:51;;;;;;;63.60;23.00;;;-1.90;99.90;;;;;;5034305;28;20246;-52
2024/01/12 01:06:16;;;;;;;39.33;20.70;;;-1.90;99.90;;;;;;5033721;28;20180;-51
2024/01/12 01:08:42;;;;;;;56.53;21.37;;;-1.90;99.90;;;;;;5033945;28;20234;-51
2024/01/12 01:11:08;;;;;;;57.47;22.37;;;-1.90;99.90;;;;;;5033529;28;20499;-53
2024/01/12 01:13:36;;;;;;;45.43;20.87;;;-1.90;99.90;;;;;;5033292;28;20302;-53
2024/01/12 01:16:02;;;;;;;76.63;22.00;;;-1.90;99.90;;;;;;5033222;28;20449;-52
2024/01/12 01:18:30;;;;;;;41.97;20.83;;;-1.90;99.90;;;;;;5033350;28;20480;-52
2024/01/12 01:20:57;;;;;;;59.83;22.37;;;-1.90;99.90;;;;;;5034267;28;20772;-52
2024/01/12 01:23:22;;;;;;;56.50;20.23;;;-1.90;99.90;;;;;;5033179;28;20476;-52
2024/01/12 01:25:48;;;;;;;102.10;23.37;;;-1.90;99.90;;;;;;5032920;28;20423;-52
2024/01/12 01:28:14;;;;;;;65.43;21.50;;;-1.90;99.90;;;;;;5032687;28;20258;-52
2024/01/12 01:30:39;;;;;;;44.83;19.60;;;-1.90;99.90;;;;;;5033532;28;20190;-51
2024/01/12 01:33:05;;;;;;;42.47;20.17;;;-1.90;99.90;;;;;;5033419;28;20334;-52
2024/01/12 01:35:31;;;;;;;56.73;21.37;;;-1.90;99.90;;;;;;5033384;28;20191;-52
2024/01/12 01:37:56;;;;;;;39.50;20.63;;;-1.90;99.90;;;;;;5033005;28;20184;-55
2024/01/12 01:40:22;;;;;;;34.50;18.70;;;-1.90;99.90;;;;;;5032562;28;20245;-51
2024/01/12 01:42:48;;;;;;;42.40;20.03;;;-1.90;99.90;;;;;;5033205;28;20224;-52
2024/01/12 01:45:14;;;;;;;35.70;18.80;;;-1.90;99.90;;;;;;5033104;28;20652;-52
2024/01/12 01:47:40;;;;;;;44.63;19.53;;;-1.90;99.90;;;;;;5033276;28;20426;-51
2024/01/12 01:50:07;;;;;;;40.40;19.30;;;-2.00;99.90;;;;;;5032286;28;20180;-52
2024/01/12 01:52:33;;;;;;;43.10;18.63;;;-2.00;99.90;;;;;;5032910;28;20533;-52
2024/01/12 01:54:58;;;;;;;45.97;22.60;;;-1.90;99.90;;;;;;5032116;28;20570;-52
2024/01/12 01:57:27;;;;;;;42.83;20.30;;;-2.00;99.90;;;;;;5033222;28;20187;-52
2024/01/12 01:59:54;;;;;;;58.93;21.47;;;-1.90;99.90;;;;;;5033027;28;20182;-52
2024/01/12 02:02:20;;;;;;;57.87;21.27;;;-2.00;99.90;;;;;;5031773;28;20421;-51
2024/01/12 02:04:47;;;;;;;93.57;23.80;;;-2.00;99.90;;;;;;5032227;28;20434;-52
2024/01/12 02:07:12;;;;;;;56.87;23.60;;;-2.00;99.90;;;;;;5032610;28;20469;-51
2024/01/12 02:09:38;;;;;;;76.47;24.23;;;-2.00;99.90;;;;;;5032615;28;20964;-51
2024/01/12 02:12:04;;;;;;;61.83;22.00;;;-2.00;99.90;;;;;;5033348;28;20186;-51
2024/01/12 02:14:30;;;;;;;150.67;26.50;;;-2.00;99.90;;;;;;5031686;28;20829;-51
2024/01/12 02:16:56;;;;;;;65.93;21.60;;;-2.00;99.90;;;;;;5032652;28;20415;-55
2024/01/12 02:19:22;;;;;;;43.27;18.57;;;-2.10;99.90;;;;;;5032231;28;20471;-51
2024/01/12 02:21:47;;;;;;;68.93;20.53;;;-2.10;99.90;;;;;;5033118;28;20582;-51
2024/01/12 02:24:13;;;;;;;42.07;19.33;;;-2.10;99.90;;;;;;5032118;28;20182;-54
2024/01/12 02:26:39;;;;;;;42.73;18.83;;;-2.10;99.90;;;;;;5031882;28;20192;-51
2024/01/12 02:29:04;;;;;;;49.70;19.47;;;-2.20;99.90;;;;;;5031639;28;20202;-51
2024/01/12 02:31:30;;;;;;;52.60;19.40;;;-2.20;99.90;;;;;;5032332;28;20187;-52
2024/01/12 02:33:56;;;;;;;53.67;18.90;;;-2.20;99.90;;;;;;5032868;28;20224;-51
2024/01/12 02:36:28;;;;;;;47.27;18.87;;;-2.20;99.90;;;;;;5031844;28;20521;-51
2024/01/12 02:38:55;;;;;;;65.93;19.47;;;-2.20;99.90;;;;;;5032061;28;20632;-50
2024/01/12 02:41:21;;;;;;;50.23;19.97;;;-2.20;99.90;;;;;;5031702;28;20425;-50
2024/01/12 02:43:47;;;;;;;66.40;20.67;;;-2.20;99.90;;;;;;5032007;28;20425;-51
2024/01/12 02:46:13;;;;;;;60.57;19.13;;;-2.20;99.90;;;;;;5031880;28;20484;-51
2024/01/12 02:48:39;;;;;;;57.20;21.30;;;-2.20;99.90;;;;;;5031741;28;20529;-51
2024/01/12 02:51:05;;;;;;;59.60;19.60;;;-2.30;99.90;;;;;;5031418;28;20217;-51
2024/01/12 02:53:31;;;;;;;91.97;21.30;;;-2.30;99.90;;;;;;5032169;28;20226;-51
2024/01/12 02:55:56;;;;;;;77.90;21.70;;;-2.30;99.90;;;;;;5031698;28;20422;-55
2024/01/12 02:58:22;;;;;;;54.83;22.20;;;-2.30;99.90;;;;;;5032241;28;20278;-51
2024/01/12 03:00:47;;;;;;;61.93;20.53;;;-2.40;99.90;;;;;;5032467;28;20184;-51
2024/01/12 03:03:13;;;;;;;101.13;22.50;;;-2.40;99.90;;;;;;5030981;28;20192;-53
2024/01/12 03:05:38;;;;;;;74.57;21.73;;;-2.50;99.90;;;;;;5031813;28;20270;-52
2024/01/12 03:08:04;;;;;;;71.57;22.10;;;-2.50;99.90;;;;;;5031318;28;20234;-51
2024/01/12 03:10:30;;;;;;;57.90;21.53;;;-2.40;99.90;;;;;;5031179;28;20203;-52
2024/01/12 03:12:55;;;;;;;47.50;21.43;;;-2.40;99.90;;;;;;5031423;28;20179;-51
2024/01/12 03:15:21;;;;;;;158.90;25.40;;;-2.40;99.90;;;;;;5031923;28;20258;-51
2024/01/12 03:17:47;;;;;;;74.63;22.13;;;-2.40;99.90;;;;;;5029880;28;20183;-52
2024/01/12 03:20:12;;;;;;;61.47;22.50;;;-2.40;99.90;;;;;;5031998;28;20198;-51
2024/01/12 03:22:38;;;;;;;101.33;22.60;;;-2.40;99.90;;;;;;5031699;28;20229;-51
2024/01/12 03:25:04;;;;;;;98.93;21.67;;;-2.40;99.90;;;;;;5031978;28;20205;-53
2024/01/12 03:27:29;;;;;;;175.67;23.83;;;-2.40;99.90;;;;;;5031627;28;20186;-52
2024/01/12 03:29:55;;;;;;;59.73;20.10;;;-2.40;99.90;;;;;;5030673;28;20214;-51
2024/01/12 03:32:21;;;;;;;199.43;26.10;;;-2.50;99.90;;;;;;5031072;28;20186;-52
2024/01/12 03:34:46;;;;;;;66.57;20.63;;;-2.60;99.90;;;;;;5031961;28;20211;-54
2024/01/12 03:37:12;;;;;;;44.30;19.30;;;-2.70;99.90;;;;;;5031742;28;20410;-51
2024/01/12 03:39:38;;;;;;;107.83;25.63;;;-2.70;99.90;;;;;;5030682;28;20317;-52
2024/01/12 03:42:04;;;;;;;67.20;21.03;;;-2.70;99.90;;;;;;5030442;28;20261;-52
2024/01/12 03:44:29;;;;;;;61.57;20.80;;;-2.80;99.90;;;;;;5031548;28;20253;-53
2024/01/12 03:46:55;;;;;;;53.43;20.20;;;-2.80;99.90;;;;;;5032013;28;20456;-51
2024/01/12 03:49:22;;;;;;;39.83;19.27;;;-2.80;99.90;;;;;;5031117;28;20186;-52
2024/01/12 03:51:53;;;;;;;52.30;19.57;;;-2.80;99.90;;;;;;5030836;28;20209;-52
2024/01/12 03:54:19;;;;;;;50.07;20.40;;;-2.80;99.90;;;;;;5030849;28;20540;-52
2024/01/12 03:56:45;;;;;;;52.23;20.77;;;-2.80;99.90;;;;;;5030855;28;20421;-51
2024/01/12 03:59:11;;;;;;;49.00;18.63;;;-2.80;99.90;;;;;;5030940;28;20428;-51
2024/01/12 04:01:36;;;;;;;54.80;20.30;;;-2.90;99.90;;;;;;5031561;28;20179;-51
2024/01/12 04:04:02;;;;;;;40.57;18.80;;;-2.90;99.90;;;;;;5030903;28;20412;-51
2024/01/12 04:06:28;;;;;;;65.33;20.10;;;-2.80;99.90;;;;;;5030434;28;20266;-52
2024/01/12 04:08:53;;;;;;;47.97;19.53;;;-2.90;99.90;;;;;;5030791;28;21007;-51
2024/01/12 04:11:23;;;;;;;80.07;19.30;;;-2.80;99.90;;;;;;5031543;28;20675;-52
2024/01/12 04:13:48;;;;;;;51.93;19.13;;;-3.00;99.90;;;;;;5030397;28;20211;-51
2024/01/12 04:16:14;;;;;;;60.43;19.20;;;-3.00;99.90;;;;;;5030886;28;20902;-51
2024/01/12 04:18:39;;;;;;;55.23;18.93;;;-3.10;99.90;;;;;;5030892;28;20187;-52
2024/01/12 04:21:05;;;;;;;49.67;20.10;;;-3.00;99.90;;;;;;5030924;28;20259;-51
2024/01/12 04:23:31;;;;;;;55.73;20.23;;;-3.10;99.90;;;;;;5031129;28;20643;-52
2024/01/12 04:25:57;;;;;;;46.63;19.40;;;-3.10;99.90;;;;;;5032741;28;20290;-56
2024/01/12 04:28:22;;;;;;;58.37;19.17;;;-3.10;99.90;;;;;;5035066;28;20828;-51
2024/01/12 04:30:48;;;;;;;42.03;18.10;;;-3.10;99.90;;;;;;5034341;28;20226;-52
2024/01/12 04:33:14;;;;;;;72.17;20.70;;;-3.00;99.90;;;;;;5034123;28;20308;-52
2024/01/12 04:35:40;;;;;;;49.23;20.60;;;-3.00;99.90;;;;;;5034101;28;20213;-52
2024/01/12 04:38:06;;;;;;;61.03;20.43;;;-3.00;99.90;;;;;;5034962;28;20512;-52
2024/01/12 04:40:31;;;;;;;47.67;18.47;;;-3.10;99.90;;;;;;5034045;28;20187;-52
2024/01/12 04:42:57;;;;;;;79.10;19.83;;;-3.00;99.90;;;;;;5034170;28;20944;-53
2024/01/12 04:45:23;;;;;;;68.77;20.27;;;-3.00;99.90;;;;;;5034103;28;20666;-52
2024/01/12 04:47:48;;;;;;;42.70;18.67;;;-3.00;99.90;;;;;;5033879;28;20193;-52
2024/01/12 04:50:14;;;;;;;47.53;17.63;;;-3.00;99.90;;;;;;5033697;28;20187;-53
2024/01/12 04:52:39;;;;;;;48.03;17.00;;;-3.10;99.90;;;;;;5034031;28;20181;-51
2024/01/12 04:55:05;;;;;;;45.47;17.00;;;-3.00;99.90;;;;;;5033562;28;20246;-52
2024/01/12 04:57:30;;;;;;;52.83;18.70;;;-3.00;99.90;;;;;;5033679;28;20241;-52
2024/01/12 04:59:56;;;;;;;43.83;18.80;;;-3.10;99.90;;;;;;5033633;28;20267;-52
2024/01/12 05:02:21;;;;;;;38.90;17.47;;;-3.10;99.90;;;;;;5034371;28;20628;-51
2024/01/12 05:04:47;;;;;;;39.00;17.00;;;-3.10;99.90;;;;;;5033714;28;20178;-52
2024/01/12 05:07:13;;;;;;;36.70;17.30;;;-3.10;99.90;;;;;;5033814;28;20662;-52
2024/01/12 05:09:38;;;;;;;41.63;17.83;;;-3.10;99.90;;;;;;5032720;28;20245;-52
2024/01/12 05:12:04;;;;;;;49.30;20.00;;;-3.10;99.90;;;;;;5033457;28;20179;-51
2024/01/12 05:14:31;;;;;;;37.77;18.20;;;-3.10;99.90;;;;;;5033651;28;20222;-51
2024/01/12 05:16:57;;;;;;;50.10;19.13;;;-3.00;99.90;;;;;;5034017;28;20426;-52
2024/01/12 05:19:22;;;;;;;44.43;18.73;;;-3.10;99.90;;;;;;5033665;28;20476;-52
2024/01/12 05:21:48;;;;;;;49.73;19.03;;;-3.10;99.90;;;;;;5032669;28;20272;-51
2024/01/12 05:24:13;;;;;;;47.10;19.60;;;-3.10;99.90;;;;;;5033302;28;20222;-51
2024/01/12 05:26:39;;;;;;;42.60;17.90;;;-3.10;99.90;;;;;;5033823;28;20651;-52
2024/01/12 05:29:08;;;;;;;40.93;18.60;;;-3.20;99.90;;;;;;5033610;28;20642;-51
2024/01/12 05:31:34;;;;;;;45.13;17.63;;;-3.20;99.90;;;;;;5033694;28;20188;-52
2024/01/12 05:33:59;;;;;;;38.13;17.60;;;-3.10;99.90;;;;;;5032461;28;20481;-52
2024/01/12 05:36:25;;;;;;;35.63;16.83;;;-3.20;99.90;;;;;;5033294;28;20425;-52
2024/01/12 05:38:50;;;;;;;37.40;17.10;;;-3.20;99.90;;;;;;5033168;28;20182;-52
2024/01/12 05:41:16;;;;;;;43.77;18.17;;;-3.20;99.90;;;;;;5032728;28;20194;-52
2024/01/12 05:43:41;;;;;;;46.27;17.83;;;-3.10;99.90;;;;;;5032929;28;20190;-52
2024/01/12 05:46:07;;;;;;;58.63;16.77;;;-3.10;99.90;;;;;;5032959;28;20214;-52
2024/01/12 05:48:33;;;;;;;37.60;17.00;;;-3.10;99.90;;;;;;5033355;28;20195;-52
2024/01/12 05:51:00;;;;;;;44.80;17.03;;;-3.10;99.90;;;;;;5031740;28;20183;-52
2024/01/12 05:53:25;;;;;;;73.73;17.90;;;-3.10;99.90;;;;;;5033223;28;20469;-52
2024/01/12 05:55:52;;;;;;;90.83;19.20;;;-3.20;99.90;;;;;;5031904;28;20418;-52
2024/01/12 05:58:19;;;;;;;38.80;17.57;;;-3.20;99.90;;;;;;5033382;28;20183;-52
2024/01/12 06:00:44;;;;;;;44.47;18.07;;;-3.30;99.90;;;;;;5032121;28;20440;-52
2024/01/12 06:03:10;;;;;;;46.53;18.57;;;-3.40;99.90;;;;;;5032261;28;20897;-52
2024/01/12 06:05:35;;;;;;;40.10;17.93;;;-3.40;99.90;;;;;;5032905;28;20666;-52
2024/01/12 06:08:01;;;;;;;44.13;18.50;;;-3.50;99.90;;;;;;5032697;28;20599;-52
2024/01/12 06:10:26;;;;;;;48.00;19.10;;;-3.50;99.90;;;;;;5032134;28;20692;-55
2024/01/12 06:12:53;;;;;;;58.57;20.43;;;-3.50;99.90;;;;;;5032652;28;20596;-52
2024/01/12 06:15:19;;;;;;;49.90;19.40;;;-3.60;99.90;;;;;;5032282;28;20234;-51
2024/01/12 06:17:45;;;;;;;51.47;20.43;;;-3.60;99.90;;;;;;5031945;28;20472;-53
2024/01/12 06:20:11;;;;;;;51.80;19.33;;;-3.60;99.90;;;;;;5032412;28;20262;-51
2024/01/12 06:22:36;;;;;;;49.33;19.00;;;-3.60;99.90;;;;;;5031865;28;20178;-55
2024/01/12 06:25:02;;;;;;;47.60;20.80;;;-3.60;99.90;;;;;;5032566;28;20532;-52
2024/01/12 06:27:28;;;;;;;48.57;20.53;;;-3.60;99.90;;;;;;5032573;28;20190;-53
2024/01/12 06:29:54;;;;;;;70.07;20.93;;;-3.50;99.90;;;;;;5031851;28;20474;-52
2024/01/12 06:32:19;;;;;;;55.63;20.43;;;-3.50;99.90;;;;;;5031862;28;20228;-52
2024/01/12 06:34:45;;;;;;;53.80;21.37;;;-3.50;99.90;;;;;;5031596;28;20235;-52
2024/01/12 06:37:10;;;;;;;56.97;21.73;;;-3.50;99.90;;;;;;5032746;28;20183;-52
2024/01/12 06:39:39;;;;;;;57.57;21.77;;;-3.40;99.90;;;;;;5031624;28;20249;-52
2024/01/12 06:42:05;;;;;;;51.87;22.13;;;-3.40;99.90;;;;;;5031280;28;20251;-52
2024/01/12 06:44:30;;;;;;;51.23;20.10;;;-3.30;99.90;;;;;;5032362;28;20912;-52
2024/01/12 06:46:56;;;;;;;61.93;21.17;;;-3.30;99.90;;;;;;5032460;28;20425;-52
2024/01/12 06:49:21;;;;;;;54.40;21.50;;;-3.30;99.90;;;;;;5030912;28;20181;-53
2024/01/12 06:51:47;;;;;;;56.03;22.10;;;-3.20;99.90;;;;;;5031169;28;20648;-53
2024/01/12 06:54:12;;;;;;;57.17;21.00;;;-3.20;99.90;;;;;;5031922;28;20675;-52
2024/01/12 06:56:39;;;;;;;56.33;20.63;;;-3.20;99.90;;;;;;5032329;28;20649;-52
2024/01/12 06:59:05;;;;;;;53.60;20.37;;;-3.10;99.90;;;;;;5031557;28;20187;-53
2024/01/12 07:01:31;;;;;;;55.43;19.70;;;-3.10;99.90;;;;;;5031268;28;20418;-52
2024/01/12 07:03:56;;;;;;;77.97;22.87;;;-3.00;99.90;;;;;;5031202;28;20560;-55
2024/01/12 07:06:22;;;;;;;57.83;18.00;;;-2.90;99.90;;;;;;5032238;28;20181;-52
2024/01/12 07:08:48;;;;;;;40.93;16.27;;;-2.90;99.90;;;;;;5031298;28;20252;-53
2024/01/12 07:11:13;;;;;;;50.93;16.80;;;-2.80;99.90;;;;;;5030277;28;20681;-51
2024/01/12 07:13:39;;;;;;;53.33;15.07;;;-2.70;99.90;;;;;;5031988;28;20219;-52
2024/01/12 07:16:05;;;;;;;43.47;15.10;;;-2.60;99.90;;;;;;5031826;28;20193;-52
2024/01/12 07:18:31;;;;;;;42.50;14.23;;;-2.50;99.90;;;;;;5032279;28;20189;-52
2024/01/12 07:20:57;;;;;;;40.30;14.00;;;-2.40;99.90;;;;;;5031054;28;20508;-56
2024/01/12 07:23:23;;;;;;;41.57;14.20;;;-2.40;99.90;;;;;;5031126;28;20294;-54
2024/01/12 07:25:48;;;;;;;65.63;14.47;;;-2.30;99.90;;;;;;5031514;28;20438;-52
2024/01/12 07:28:15;;;;;;;48.47;16.03;;;-2.30;99.90;;;;;;5031751;28;20190;-53
2024/01/12 07:30:40;;;;;;;56.93;16.40;;;-2.20;99.90;;;;;;5031240;28;20186;-51
2024/01/12 07:33:06;;;;;;;51.87;15.53;;;-2.10;99.90;;;;;;5031110;28;20428;-52
2024/01/12 07:35:32;;;;;;;46.40;16.60;;;-2.10;99.90;;;;;;5031510;28;20234;-51
2024/01/12 07:37:57;;;;;;;48.13;17.07;;;-2.10;99.90;;;;;;5031653;28;20667;-50
2024/01/12 07:40:23;;;;;;;45.97;16.73;;;-2.10;99.90;;;;;;5031519;28;20692;-51
2024/01/12 07:42:48;;;;;;;64.93;15.60;;;-2.10;99.90;;;;;;5031301;28;20577;-53
2024/01/12 07:45:14;;;;;;;45.27;15.17;;;-2.10;99.90;;;;;;5030844;28;20214;-52
2024/01/12 07:47:40;;;;;;;63.23;15.83;;;-2.00;99.90;;;;;;5030969;28;20197;-53
2024/01/12 07:50:06;;;;;;;43.70;14.00;;;-2.00;99.90;;;;;;5031540;28;20487;-52
2024/01/12 07:52:32;;;;;;;39.73;14.60;;;-2.00;99.90;;;;;;5029984;28;20436;-52
2024/01/12 07:54:58;;;;;;;38.10;13.93;;;-2.00;99.90;;;;;;5031063;28;20968;-52
2024/01/12 07:57:23;;;;;;;54.30;16.20;;;-2.00;99.90;;;;;;5029834;28;20203;-52
2024/01/12 07:59:49;;;;;;;61.87;15.53;;;-1.90;99.90;;;;;;5032977;28;20183;-52
2024/01/12 08:02:15;;;;;;;60.83;14.10;;;-1.90;99.90;;;;;;5034998;28;20301;-52
2024/01/12 08:04:40;;;;;;;36.50;15.10;;;-1.80;99.90;;;;;;5035178;28;20191;-52
2024/01/12 08:07:06;;;;;;;37.70;14.37;;;-1.80;99.90;;;;;;5034630;28;20417;-52
2024/01/12 08:09:32;;;;;;;66.07;16.27;;;-1.70;99.90;;;;;;5034315;28;20246;-52
2024/01/12 08:11:58;;;;;;;55.43;15.33;;;-1.70;99.90;;;;;;5035059;28;20187;-52
2024/01/12 08:14:23;;;;;;;54.97;14.40;;;-1.70;99.90;;;;;;5035604;28;20217;-55
2024/01/12 08:16:49;;;;;;;50.93;14.33;;;-1.60;99.90;;;;;;5034588;28;20507;-52
2024/01/12 08:19:15;;;;;;;61.77;14.90;;;-1.60;99.90;;;;;;5034593;28;20679;-51
2024/01/12 08:21:41;;;;;;;55.30;14.87;;;-1.60;99.90;;;;;;5034235;28;20429;-52
2024/01/12 08:24:07;;;;;;;51.43;15.43;;;-1.50;99.90;;;;;;5034155;28;20201;-51
2024/01/12 08:26:32;;;;;;;53.27;14.93;;;-1.40;99.90;;;;;;5035101;28;20402;-52
2024/01/12 08:29:01;;;;;;;42.60;15.17;;;-1.30;99.90;;;;;;5034531;28;20176;-52
2024/01/12 08:31:30;;;;;;;39.43;13.07;;;-1.30;99.90;;;;;;5034177;28;20643;-54
2024/01/12 08:33:56;;;;;;;43.53;14.50;;;-1.20;99.90;;;;;;5034280;28;20469;-52
2024/01/12 08:36:21;;;;;;;47.97;15.67;;;-1.20;99.90;;;;;;5034074;28;20775;-52
2024/01/12 08:38:47;;;;;;;65.77;15.73;;;-1.20;99.90;;;;;;5034820;28;20429;-52
2024/01/12 08:41:13;;;;;;;59.87;17.20;;;-1.10;99.90;;;;;;5033857;28;20179;-51
2024/01/12 08:43:39;;;;;;;74.17;15.10;;;-1.10;99.90;;;;;;5034447;28;20449;-53
2024/01/12 08:46:05;;;;;;;42.53;14.33;;;-1.00;99.90;;;;;;5033958;28;20241;-52
2024/01/12 08:48:30;;;;;;;49.27;14.83;;;-0.90;99.90;;;;;;5034056;28;20426;-52
2024/01/12 08:50:57;;;;;;;44.70;14.27;;;-0.80;99.90;;;;;;5034163;28;20206;-54
2024/01/12 08:53:23;;;;;;;40.60;13.00;;;-0.80;99.90;;;;;;5034610;28;20624;-51
2024/01/12 08:55:49;;;;;;;54.63;14.83;;;-0.70;99.90;;;;;;5034109;28;20449;-51
2024/01/12 08:58:15;;;;;;;40.30;15.00;;;-0.60;99.90;;;;;;5034184;28;20179;-52
2024/01/12 09:00:40;;;;;;;98.23;17.13;;;-0.60;99.90;;;;;;5032750;28;20176;-52
2024/01/12 09:03:06;;;;;;;44.50;14.57;;;-0.50;99.90;;;;;;5034340;28;20187;-51
2024/01/12 09:05:31;;;;;;;68.23;14.63;;;-0.40;99.90;;;;;;5034089;28;20190;-51
2024/01/12 09:07:57;;;;;;;50.73;14.93;;;-0.40;99.90;;;;;;5032946;28;20378;-52
2024/01/12 09:10:22;;;;;;;51.30;13.23;;;-0.30;99.90;;;;;;5033614;28;20245;-51
2024/01/12 09:12:48;;;;;;;53.80;14.20;;;-0.30;99.90;;;;;;5033089;28;20195;-51
2024/01/12 09:15:14;;;;;;;58.53;13.50;;;-0.20;99.90;;;;;;5033721;28;20210;-50
2024/01/12 09:17:40;;;;;;;53.13;13.27;;;-0.10;99.90;;;;;;5033417;28;20659;-50
2024/01/12 09:20:07;;;;;;;53.83;13.20;;;-0.10;99.90;;;;;;5032949;28;20436;-50
2024/01/12 09:22:33;;;;;;;39.10;12.17;;;0.00;99.90;;;;;;5034022;28;20490;-51
2024/01/12 09:24:58;;;;;;;41.07;13.60;;;0.00;99.90;;;;;;5033382;28;20910;-51
2024/01/12 09:27:24;;;;;;;56.07;13.93;;;0.00;99.90;;;;;;5033550;28;20184;-51
2024/01/12 09:29:49;;;;;;;43.97;14.97;;;0.10;99.90;;;;;;5033735;28;20215;-51
2024/01/12 09:32:15;;;;;;;48.73;14.00;;;0.10;99.90;;;;;;5033098;28;20206;-51
2024/01/12 09:34:41;;;;;;;44.17;13.00;;;0.20;99.90;;;;;;5033759;28;20709;-50
2024/01/12 09:37:06;;;;;;;44.17;12.90;;;0.20;99.90;;;;;;5032868;28;20184;-51
2024/01/12 09:39:32;;;;;;;63.00;15.10;;;0.30;99.90;;;;;;5032647;28;20213;-51
2024/01/12 09:42:03;;;;;;;37.03;14.40;;;0.30;99.90;;;;;;5033027;28;20185;-51
2024/01/12 09:44:31;;;;;;;41.40;14.17;;;0.40;99.90;;;;;;5032946;28;20219;-50
2024/01/12 09:46:58;;;;;;;45.07;14.17;;;0.40;99.90;;;;;;5032773;28;20429;-51
2024/01/12 09:49:29;;;;;;;42.70;14.60;;;0.40;99.90;;;;;;5033687;28;20464;-51
2024/01/12 09:51:56;;;;;;;40.80;13.80;;;0.50;99.90;;;;;;5033775;28;20425;-51
2024/01/12 09:54:22;;;;;;;39.43;13.80;;;0.50;99.90;;;;;;5032337;28;20459;-51
2024/01/12 09:56:48;;;;;;;39.40;15.87;;;0.60;99.90;;;;;;5033084;28;20769;-51
2024/01/12 09:59:16;;;;;;;44.77;15.03;;;0.60;99.90;;;;;;5032745;28;20217;-51
2024/01/12 10:01:42;;;;;;;35.67;13.20;;;0.70;99.90;;;;;;5032586;28;20465;-50
2024/01/12 10:04:08;;;;;;;45.60;15.07;;;0.70;99.90;;;;;;5032866;28;20433;-50
2024/01/12 10:06:35;;;;;;;35.00;13.43;;;0.70;99.90;;;;;;5032207;28;20884;-51
2024/01/12 10:09:01;;;;;;;36.37;14.00;;;0.70;99.90;;;;;;5032679;28;20575;-51
2024/01/12 10:11:27;;;;;;;47.90;16.57;;;0.70;99.90;;;;;;5032872;28;20523;-54
2024/01/12 10:13:53;;;;;;;36.47;14.07;;;0.70;99.90;;;;;;5032405;28;20749;-51
2024/01/12 10:16:20;;;;;;;43.17;14.23;;;0.70;99.90;;;;;;5031539;28;20182;-51
2024/01/12 10:18:46;;;;;;;38.43;14.30;;;0.70;99.90;;;;;;5032499;28;20199;-52
2024/01/12 10:21:14;;;;;;;41.03;14.40;;;0.70;99.90;;;;;;5032235;28;20418;-52
2024/01/12 10:23:42;;;;;;;51.33;16.20;;;0.80;99.90;;;;;;5031718;28;20519;-51
2024/01/12 10:26:09;;;;;;;45.17;14.30;;;0.80;99.90;;;;;;5031375;28;20418;-51
2024/01/12 10:28:35;;;;;;;50.17;14.57;;;0.80;99.90;;;;;;5031847;28;20422;-51
2024/01/12 10:31:08;;;;;;;39.43;13.93;;;0.80;99.90;;;;;;5032345;28;20423;-51
2024/01/12 10:33:34;;;;;;;39.00;14.47;;;0.80;99.90;;;;;;5031579;28;20966;-51
2024/01/12 10:36:12;;;;;;;42.00;13.57;;;0.80;99.90;;;;;;5031471;28;20528;-51
2024/01/12 10:38:39;;;;;;;37.10;14.20;;;0.80;99.90;;;;;;5028796;28;20828;-53
2024/01/12 10:41:06;;;;;;;40.27;13.70;;;0.80;99.90;;;;;;5030881;28;20790;-51
2024/01/12 10:43:37;;;;;;;29.93;12.47;;;0.80;99.90;;;;;;5031375;28;20422;-53
2024/01/12 10:46:16;;;;;;;50.17;16.47;;;0.80;99.90;;;;;;5032020;28;20411;-52
2024/01/12 10:48:54;;;;;;;35.80;14.33;;;0.80;99.90;;;;;;5032157;28;20414;-52
2024/01/12 10:51:24;;;;;;;47.27;15.37;;;0.90;99.90;;;;;;5031699;28;20422;-51
2024/01/12 10:54:05;;;;;;;36.97;14.60;;;0.80;99.90;;;;;;5031646;28;21210;-51
2024/01/12 10:56:35;;;;;;;33.27;13.13;;;0.90;99.90;;;;;;5032118;28;20410;-51
2024/01/12 10:59:03;;;;;;;35.17;13.73;;;0.80;99.90;;;;;;5031612;28;20483;-51
2024/01/12 11:01:30;;;;;;;39.30;13.57;;;0.90;99.90;;;;;;5032287;28;20442;-51
2024/01/12 11:03:56;;;;;;;30.83;12.67;;;1.00;99.90;;;;;;5032010;28;20433;-51
2024/01/12 11:06:22;;;;;;;38.83;13.23;;;1.00;99.90;;;;;;5032028;28;20414;-50
2024/01/12 11:08:50;;;;;;;40.90;13.60;;;1.00;99.90;;;;;;5030310;28;20465;-51
2024/01/12 11:11:20;;;;;;;27.50;12.63;;;1.10;99.90;;;;;;5031851;28;20923;-52
2024/01/12 11:13:47;;;;;;;43.00;14.20;;;1.10;99.90;;;;;;5031332;28;20546;-51
2024/01/12 11:16:12;;;;;;;39.67;14.13;;;1.10;99.90;;;;;;5031235;28;20414;-51
2024/01/12 11:18:38;;;;;;;42.57;13.77;;;1.10;99.90;;;;;;5031282;28;20420;-52
2024/01/12 11:21:04;;;;;;;38.37;13.90;;;1.20;99.90;;;;;;5032190;28;20180;-51
2024/01/12 11:23:40;;;;;;;36.87;12.90;;;1.10;99.90;;;;;;5031275;28;20484;-51
2024/01/12 11:26:06;;;;;;;45.90;14.43;;;1.10;99.90;;;;;;5031759;28;20405;-52
2024/01/12 11:28:36;;;;;;;38.43;13.40;;;1.20;99.90;;;;;;5030879;28;20416;-51
2024/01/12 11:31:02;;;;;;;44.43;14.60;;;1.20;99.90;;;;;;5031049;28;20195;-51
2024/01/12 11:33:28;;;;;;;34.20;12.63;;;1.20;99.90;;;;;;5031482;28;20437;-53
2024/01/12 11:35:54;;;;;;;38.60;13.63;;;1.20;99.90;;;;;;5035866;28;20187;-51
2024/01/12 11:38:19;;;;;;;39.67;13.83;;;1.30;99.90;;;;;;5035662;28;20782;-51
2024/01/12 11:40:50;;;;;;;47.27;14.27;;;1.40;99.90;;;;;;5035184;28;20329;-50
2024/01/12 11:43:17;;;;;;;33.73;14.60;;;1.50;99.90;;;;;;5035657;28;20510;-53
2024/01/12 11:45:43;;;;;;;41.30;14.13;;;1.60;99.90;;;;;;5035052;28;20416;-51
2024/01/12 11:48:13;;;;;;;33.90;13.20;;;1.60;99.90;;;;;;5034812;28;20435;-51
2024/01/12 11:50:39;;;;;;;34.83;12.50;;;1.70;99.90;;;;;;5036310;28;20410;-52
2024/01/12 11:53:05;;;;;;;41.43;13.90;;;1.70;99.90;;;;;;5035217;28;20617;-53
2024/01/12 11:55:32;;;;;;;32.03;13.27;;;1.70;99.90;;;;;;5034227;28;20297;-53
2024/01/12 11:57:58;;;;;;;37.77;13.70;;;1.70;99.90;;;;;;5034566;28;20954;-53
2024/01/12 12:00:25;;;;;;;35.53;11.83;;;1.80;99.90;;;;;;5036030;28;20445;-52
2024/01/12 12:02:50;;;;;;;26.60;12.13;;;1.80;99.90;;;;;;5034958;28;20674;-52
2024/01/12 12:05:16;;;;;;;33.23;12.30;;;1.80;86.50;;;;;;5035082;28;20422;-53
2024/01/12 12:07:41;;;;;;;36.07;13.40;;;1.90;75.20;;;;;;5034499;28;20245;-52
2024/01/12 12:10:09;;;;;;;30.83;12.10;;;1.90;36.10;;;;;;5034769;28;20171;-52
2024/01/12 12:12:35;;;;;;;37.63;13.77;;;1.80;42.20;;;;;;5034791;28;20211;-52
2024/01/12 12:15:06;;;;;;;35.67;13.70;;;1.90;49.90;;;;;;5034818;28;21092;-52
2024/01/12 12:17:36;;;;;;;30.20;12.57;;;1.90;50.60;;;;;;5034763;28;20420;-51
2024/01/12 12:20:10;;;;;;;40.40;13.40;;;2.00;41.00;;;;;;5034250;28;20412;-52
2024/01/12 12:22:45;;;;;;;40.47;13.20;;;2.00;37.00;;;;;;5034926;28;20426;-53